X  Close Metar Aviation Weather Data     EKVJ Stauning Airport
Temperature
4°C Temperature
3°C Dewpoint
93% Humidity



Wind
5 M/S
12 MPH
19 KM/H
10 KTS



140°
SE
Current Conditions

Partly Cloudy Partly Cloudy
Pressure 1014.92 (hPa) - 29.97 (inHg)
Visibility 5 (mile) - 8 (km)
Airport
Airport-code EKVJ

Location: Stauning Airport
Distance: 14 (km)

Metar:
EKVJ 021450Z 14010KT 8000 FEW016 BKN020 04/03 Q1015

Time: 12-02-2020 15:50 CET